Time;durP1;ratioP1;P1;durP2;ratioP2;P2;SDS_P1;SDS_P2;PMS_P1;PMS_P2;Temp;Humidity;BMP_temperature;BMP_pressure;BME280_temperature;BME280_humidity;BME280_pressure;Samples;Min_cycle;Max_cycle;Signal;HPM_P1;HPM_P2
2021/01/14 00:00:26;;;;;;;13.53;5.80;;;5.40;99.90;;;;;;5093852;28;20210;-76
2021/01/14 00:02:53;;;;;;;13.03;6.53;;;5.50;99.90;;;;;;5093449;28;20207;-76
2021/01/14 00:05:20;;;;;;;13.10;6.10;;;5.50;99.90;;;;;;5093231;28;20678;-77
2021/01/14 00:07:46;;;;;;;14.50;6.77;;;5.40;99.90;;;;;;5093508;28;20283;-77
2021/01/14 00:10:13;;;;;;;13.57;6.53;;;5.40;99.90;;;;;;5093594;28;20255;-76
2021/01/14 00:12:41;;;;;;;12.73;6.37;;;5.40;99.90;;;;;;5093052;28;20204;-78
2021/01/14 00:15:11;;;;;;;15.93;6.33;;;5.40;99.90;;;;;;5094105;28;20202;-77
2021/01/14 00:17:38;;;;;;;14.83;6.77;;;5.30;99.90;;;;;;5093405;28;20216;-77
2021/01/14 00:20:06;;;;;;;16.03;6.67;;;5.40;99.90;;;;;;5093009;28;20276;-77
2021/01/14 00:22:33;;;;;;;13.70;7.03;;;5.40;99.90;;;;;;5092984;28;21041;-77
2021/01/14 00:24:59;;;;;;;12.67;6.47;;;5.40;99.90;;;;;;5092782;28;20253;-77
2021/01/14 00:27:25;;;;;;;11.90;6.47;;;5.50;99.90;;;;;;5093197;28;20220;-77
2021/01/14 00:29:51;;;;;;;14.30;6.67;;;5.50;99.90;;;;;;5092951;28;20626;-77
2021/01/14 00:32:19;;;;;;;14.87;6.87;;;5.40;99.90;;;;;;5093075;28;20199;-77
2021/01/14 00:34:45;;;;;;;13.60;6.27;;;5.50;99.90;;;;;;5092936;28;20211;-77
2021/01/14 00:39:57;;;;;;;18.60;7.47;;;5.60;99.90;;;;;;5104535;28;20264;-77
2021/01/14 00:42:23;;;;;;;15.30;7.07;;;5.60;99.90;;;;;;5101001;28;20255;-77
2021/01/14 00:44:50;;;;;;;17.80;7.00;;;5.70;99.90;;;;;;5102525;28;20207;-77
2021/01/14 00:47:16;;;;;;;12.23;6.57;;;5.60;99.90;;;;;;5102391;28;20203;-77
2021/01/14 00:49:43;;;;;;;15.87;6.80;;;5.60;99.90;;;;;;5100452;28;20676;-77
2021/01/14 00:52:10;;;;;;;17.47;7.87;;;5.50;99.90;;;;;;5104327;28;20201;-77
2021/01/14 00:54:37;;;;;;;15.30;7.57;;;5.50;99.90;;;;;;5099348;28;20733;-77
2021/01/14 00:57:07;;;;;;;13.50;7.80;;;5.50;99.90;;;;;;5105074;28;20586;-77
2021/01/14 00:59:33;;;;;;;18.77;8.27;;;5.60;99.90;;;;;;5099272;28;20227;-77
2021/01/14 01:01:59;;;;;;;18.43;7.43;;;5.50;99.90;;;;;;5103375;28;20214;-77
2021/01/14 01:04:25;;;;;;;18.27;7.20;;;5.50;99.90;;;;;;5100687;28;20303;-77
2021/01/14 01:06:53;;;;;;;14.10;6.70;;;5.50;99.90;;;;;;5101886;28;20199;-77
2021/01/14 01:09:20;;;;;;;18.53;7.67;;;5.40;99.90;;;;;;5102315;28;20649;-77
2021/01/14 01:11:47;;;;;;;14.63;7.50;;;5.30;99.90;;;;;;5100002;28;20208;-77
2021/01/14 01:14:13;;;;;;;14.47;7.27;;;5.30;99.90;;;;;;5098280;28;20309;-77
2021/01/14 01:16:39;;;;;;;13.10;6.80;;;5.20;99.90;;;;;;5092832;28;20212;-77
2021/01/14 01:19:06;;;;;;;13.90;7.23;;;5.20;99.90;;;;;;5093203;28;20209;-77
2021/01/14 01:21:32;;;;;;;20.90;8.33;;;5.10;99.90;;;;;;5092879;28;20654;-77
2021/01/14 01:23:59;;;;;;;16.70;7.50;;;5.00;99.90;;;;;;5093520;28;20204;-77
2021/01/14 01:26:25;;;;;;;14.23;7.23;;;5.00;99.90;;;;;;5093702;28;20206;-77
2021/01/14 01:28:52;;;;;;;15.53;7.53;;;5.00;99.90;;;;;;5093413;28;20208;-79
2021/01/14 01:31:18;;;;;;;13.97;6.80;;;5.00;99.90;;;;;;5093018;28;20207;-77
2021/01/14 01:33:51;;;;;;;16.10;7.37;;;5.00;99.90;;;;;;5092557;28;20205;-76
2021/01/14 01:36:18;;;;;;;16.60;7.60;;;4.90;99.90;;;;;;5092614;28;20600;-79
2021/01/14 01:38:44;;;;;;;14.80;7.40;;;4.90;99.90;;;;;;5092829;28;20218;-78
2021/01/14 01:41:11;;;;;;;13.07;7.40;;;4.90;99.90;;;;;;5092641;28;20713;-76
2021/01/14 01:43:38;;;;;;;14.73;7.27;;;4.90;99.90;;;;;;5092483;28;20490;-76
2021/01/14 01:46:05;;;;;;;16.50;7.10;;;4.80;99.90;;;;;;5092838;28;20688;-78
2021/01/14 01:48:32;;;;;;;14.73;7.40;;;4.80;99.90;;;;;;5092738;28;20260;-78
2021/01/14 01:51:01;;;;;;;15.20;7.53;;;4.80;99.90;;;;;;5092721;28;20205;-78
2021/01/14 01:53:28;;;;;;;15.97;7.63;;;4.80;99.90;;;;;;5092823;28;20215;-78
2021/01/14 01:55:54;;;;;;;14.47;7.63;;;4.90;99.90;;;;;;5092446;28;20203;-78
2021/01/14 01:58:23;;;;;;;14.23;7.23;;;4.90;99.90;;;;;;5092115;28;20656;-78
2021/01/14 02:00:49;;;;;;;12.90;7.03;;;4.80;99.90;;;;;;5092613;28;20200;-78
2021/01/14 02:03:16;;;;;;;12.47;7.07;;;4.90;99.90;;;;;;5092069;28;20660;-76
2021/01/14 02:05:42;;;;;;;16.87;7.33;;;5.00;99.90;;;;;;5092198;28;20576;-76
2021/01/14 02:08:19;;;;;;;15.20;7.17;;;4.90;99.90;;;;;;5096876;28;20221;-78
2021/01/14 02:10:53;;;;;;;15.10;7.03;;;5.00;99.90;;;;;;5092177;28;20249;-78
2021/01/14 02:13:29;;;;;;;16.63;7.10;;;5.00;99.90;;;;;;5092183;28;20212;-78
2021/01/14 02:15:58;;;;;;;15.03;7.40;;;5.00;99.90;;;;;;5092080;28;20605;-78
2021/01/14 02:18:25;;;;;;;15.67;7.23;;;5.00;99.90;;;;;;5093374;28;20206;-78
2021/01/14 02:20:56;;;;;;;14.73;8.33;;;5.00;99.90;;;;;;5094475;28;20656;-78
2021/01/14 02:23:26;;;;;;;14.50;8.23;;;5.00;99.90;;;;;;5098929;28;20203;-78
2021/01/14 02:26:04;;;;;;;15.20;8.00;;;5.10;99.90;;;;;;5095963;28;20621;-78
2021/01/14 02:28:32;;;;;;;16.43;8.30;;;5.10;99.90;;;;;;5096401;28;20233;-78
2021/01/14 02:30:59;;;;;;;13.53;8.00;;;5.00;99.90;;;;;;5096003;28;20269;-77
2021/01/14 02:33:25;;;;;;;14.40;8.13;;;5.00;99.90;;;;;;5095853;28;20253;-77
2021/01/14 02:35:51;;;;;;;15.37;8.17;;;5.00;99.90;;;;;;5096125;28;20543;-77
2021/01/14 02:38:18;;;;;;;18.07;8.13;;;5.00;99.90;;;;;;5095832;28;20218;-77
2021/01/14 02:40:44;;;;;;;17.93;8.70;;;5.00;99.90;;;;;;5095911;28;20211;-77
2021/01/14 02:43:11;;;;;;;16.73;8.90;;;4.90;99.90;;;;;;5095923;28;20208;-78
2021/01/14 02:45:37;;;;;;;18.10;8.83;;;5.00;99.90;;;;;;5095645;28;20262;-77
2021/01/14 02:48:06;;;;;;;17.87;9.13;;;5.10;99.90;;;;;;5095855;28;20246;-77
2021/01/14 02:50:37;;;;;;;15.97;8.27;;;5.10;99.90;;;;;;5095732;28;20204;-77
2021/01/14 02:53:04;;;;;;;17.60;9.37;;;5.10;99.90;;;;;;5095775;28;20209;-77
2021/01/14 02:55:31;;;;;;;15.90;9.07;;;5.20;99.90;;;;;;5095416;28;20212;-77
2021/01/14 02:57:57;;;;;;;19.70;10.03;;;5.20;99.90;;;;;;5095405;28;20220;-77
2021/01/14 03:00:25;;;;;;;20.50;10.50;;;5.30;99.90;;;;;;5095460;28;20204;-77
2021/01/14 03:02:51;;;;;;;18.40;9.70;;;5.20;99.90;;;;;;5095329;28;20227;-77
2021/01/14 03:05:17;;;;;;;16.80;9.50;;;5.20;99.90;;;;;;5095678;28;20207;-77
2021/01/14 03:07:44;;;;;;;16.43;9.40;;;5.20;99.90;;;;;;5095409;28;20242;-76
2021/01/14 03:10:11;;;;;;;18.77;9.47;;;5.20;99.90;;;;;;5095464;28;20234;-76
2021/01/14 03:12:37;;;;;;;20.63;10.70;;;5.20;99.90;;;;;;5095094;28;20676;-77
2021/01/14 03:15:04;;;;;;;19.70;10.97;;;5.30;99.90;;;;;;5095266;28;20208;-77
2021/01/14 03:17:35;;;;;;;23.70;10.80;;;5.20;99.90;;;;;;5095094;28;20224;-77
2021/01/14 03:20:01;;;;;;;22.20;11.07;;;5.30;99.90;;;;;;5094688;28;20221;-77
2021/01/14 03:22:28;;;;;;;19.27;10.97;;;5.20;99.90;;;;;;5095304;28;20199;-77
2021/01/14 03:24:54;;;;;;;20.43;11.00;;;5.30;99.90;;;;;;5094904;28;20215;-77
2021/01/14 03:27:20;;;;;;;21.33;10.87;;;5.20;99.90;;;;;;5094849;28;20206;-77
2021/01/14 03:29:47;;;;;;;19.63;11.23;;;5.30;99.90;;;;;;5094862;28;20211;-77
2021/01/14 03:32:13;;;;;;;19.73;11.67;;;5.40;99.90;;;;;;5094932;28;20198;-77
2021/01/14 03:34:40;;;;;;;20.80;12.03;;;5.50;99.90;;;;;;5094912;28;20211;-77
2021/01/14 03:37:07;;;;;;;25.87;12.50;;;5.40;99.90;;;;;;5094611;28;20226;-77
2021/01/14 03:39:33;;;;;;;20.37;11.93;;;5.40;99.90;;;;;;5095071;28;20249;-77
2021/01/14 03:41:59;;;;;;;17.53;11.73;;;5.30;99.90;;;;;;5094590;28;20226;-77
2021/01/14 03:44:25;;;;;;;17.63;11.23;;;5.10;99.90;;;;;;5094516;28;20207;-77
2021/01/14 03:46:52;;;;;;;18.27;10.90;;;4.80;99.90;;;;;;5094288;28;20206;-77
2021/01/14 03:49:19;;;;;;;25.87;11.00;;;4.60;99.90;;;;;;5094312;28;20253;-77
2021/01/14 03:51:48;;;;;;;16.73;10.07;;;4.70;99.90;;;;;;5094628;28;20203;-76
2021/01/14 03:54:14;;;;;;;16.00;9.60;;;4.70;99.90;;;;;;5094308;28;20204;-76
2021/01/14 03:56:41;;;;;;;16.90;10.03;;;4.70;99.90;;;;;;5094128;28;20701;-77
2021/01/14 03:59:08;;;;;;;19.67;10.87;;;4.80;99.90;;;;;;5093964;28;20199;-77
2021/01/14 04:01:35;;;;;;;13.83;9.30;;;4.60;99.90;;;;;;5094197;28;20209;-77
2021/01/14 04:04:02;;;;;;;17.80;10.10;;;4.70;99.90;;;;;;5094240;28;20272;-76
2021/01/14 04:06:33;;;;;;;15.90;9.73;;;4.60;99.90;;;;;;5094089;28;20207;-76
2021/01/14 04:09:01;;;;;;;16.83;10.47;;;4.70;99.90;;;;;;5094193;28;20207;-77
2021/01/14 04:11:27;;;;;;;15.93;10.37;;;4.60;99.90;;;;;;5094261;28;20226;-76
2021/01/14 04:13:54;;;;;;;15.27;10.53;;;4.50;99.90;;;;;;5094071;28;20340;-77
2021/01/14 04:16:20;;;;;;;15.50;9.30;;;4.70;99.90;;;;;;5093880;28;20225;-77
2021/01/14 04:18:46;;;;;;;16.10;10.40;;;4.80;99.90;;;;;;5094367;28;20563;-76
2021/01/14 04:21:16;;;;;;;15.67;10.30;;;4.80;99.90;;;;;;5093794;28;20660;-77
2021/01/14 04:23:44;;;;;;;18.40;10.33;;;4.90;99.90;;;;;;5094110;28;20205;-76
2021/01/14 04:26:12;;;;;;;16.73;10.63;;;4.80;99.90;;;;;;5094011;28;20286;-76
2021/01/14 04:28:39;;;;;;;20.13;12.00;;;4.90;99.90;;;;;;5094035;28;20568;-77
2021/01/14 04:31:05;;;;;;;18.23;11.57;;;5.00;99.90;;;;;;5093846;28;20204;-77
2021/01/14 04:33:32;;;;;;;19.43;11.83;;;5.00;99.90;;;;;;5093789;28;20216;-76
2021/01/14 04:36:00;;;;;;;19.67;11.70;;;5.20;99.90;;;;;;5093650;28;20210;-77
2021/01/14 04:38:28;;;;;;;19.70;11.87;;;5.00;99.90;;;;;;5093500;28;20239;-76
2021/01/14 04:40:57;;;;;;;12.93;6.23;;;4.70;99.90;;;;;;5093575;28;20207;-76
2021/01/14 04:43:26;;;;;;;9.43;5.20;;;4.40;99.90;;;;;;5092785;28;20219;-76
2021/01/14 04:45:55;;;;;;;8.03;4.37;;;4.00;99.90;;;;;;5093807;28;20606;-76
2021/01/14 04:48:22;;;;;;;9.80;4.83;;;3.70;99.90;;;;;;5093927;28;20205;-76
2021/01/14 04:50:49;;;;;;;10.30;4.50;;;3.50;99.90;;;;;;5093296;28;20575;-76
2021/01/14 04:53:19;;;;;;;7.80;4.60;;;3.50;99.90;;;;;;5093427;28;20601;-76
2021/01/14 04:55:47;;;;;;;6.50;4.30;;;3.40;99.90;;;;;;5093051;28;20661;-76
2021/01/14 04:58:18;;;;;;;6.93;4.20;;;3.40;99.90;;;;;;5093155;28;20743;-77
2021/01/14 05:00:49;;;;;;;9.70;4.30;;;3.40;99.90;;;;;;5093249;28;20204;-76
2021/01/14 05:03:23;;;;;;;6.83;3.83;;;3.30;99.90;;;;;;5093161;28;20211;-77
2021/01/14 05:05:51;;;;;;;9.03;3.33;;;3.30;99.90;;;;;;5093102;28;20645;-77
2021/01/14 05:08:25;;;;;;;4.50;2.87;;;3.10;99.90;;;;;;5093393;28;20204;-76
2021/01/14 05:10:52;;;;;;;7.23;3.00;;;3.10;99.90;;;;;;5093176;28;20212;-76
2021/01/14 05:13:19;;;;;;;5.57;3.03;;;3.00;99.90;;;;;;5092972;28;20620;-77
2021/01/14 05:15:46;;;;;;;5.97;2.93;;;3.00;99.90;;;;;;5092787;28;20208;-76
2021/01/14 05:18:13;;;;;;;7.13;2.97;;;2.70;99.90;;;;;;5093268;28;20218;-76
2021/01/14 05:20:40;;;;;;;7.18;3.10;;;2.70;99.90;;;;;;5093358;28;20450;-76
2021/01/14 05:23:07;;;;;;;5.23;2.93;;;2.70;99.90;;;;;;5093834;28;20208;-77
2021/01/14 05:25:34;;;;;;;5.37;3.03;;;2.50;99.90;;;;;;5093494;28;20208;-77
2021/01/14 05:28:10;;;;;;;5.87;2.37;;;2.50;99.90;;;;;;5092915;28;20206;-77
2021/01/14 05:30:37;;;;;;;5.17;2.40;;;2.40;99.90;;;;;;5092932;28;20203;-76
2021/01/14 05:33:04;;;;;;;3.10;2.17;;;2.30;99.90;;;;;;5092904;28;20203;-77
2021/01/14 05:35:31;;;;;;;5.67;2.43;;;2.30;99.90;;;;;;5093312;28;20215;-76
2021/01/14 05:38:03;;;;;;;4.60;2.10;;;2.10;99.90;;;;;;5092606;28;20251;-77
2021/01/14 05:40:31;;;;;;;7.43;1.90;;;2.10;99.90;;;;;;5092674;28;20657;-76
2021/01/14 05:43:05;;;;;;;4.43;1.70;;;2.00;99.90;;;;;;5092715;28;20209;-76
2021/01/14 05:45:31;;;;;;;6.00;1.97;;;1.90;99.90;;;;;;5092774;28;20203;-76
2021/01/14 05:48:08;;;;;;;7.00;2.03;;;1.80;99.90;;;;;;5092812;28;20202;-76
2021/01/14 05:50:43;;;;;;;6.43;2.40;;;1.70;99.90;;;;;;5092619;28;20678;-77
2021/01/14 05:53:14;;;;;;;7.23;1.93;;;1.80;99.90;;;;;;5093257;28;20194;-76
2021/01/14 05:55:43;;;;;;;5.37;1.80;;;1.70;99.90;;;;;;5093691;28;20227;-76
2021/01/14 05:58:17;;;;;;;6.47;2.23;;;1.70;99.90;;;;;;5096846;28;20226;-76
2021/01/14 06:00:45;;;;;;;6.97;2.63;;;1.70;99.90;;;;;;5096772;28;20198;-76
2021/01/14 06:03:28;;;;;;;10.87;2.67;;;1.80;99.90;;;;;;5097056;28;20221;-76
2021/01/14 06:05:56;;;;;;;7.20;3.10;;;1.80;99.90;;;;;;5096730;28;20265;-76
2021/01/14 06:08:24;;;;;;;6.77;3.40;;;1.80;99.90;;;;;;5096768;28;20668;-76
2021/01/14 06:10:51;;;;;;;7.93;3.47;;;1.80;99.90;;;;;;5096184;28;20646;-76
2021/01/14 06:13:18;;;;;;;4.67;2.50;;;1.90;99.90;;;;;;5095634;28;20203;-75
2021/01/14 06:15:44;;;;;;;10.13;3.13;;;1.90;99.90;;;;;;5096562;28;20293;-76
2021/01/14 06:18:12;;;;;;;10.27;3.00;;;1.80;99.90;;;;;;5102956;28;20221;-76
2021/01/14 06:20:53;;;;;;;7.17;2.67;;;1.90;99.90;;;;;;5109870;28;20207;-77
2021/01/14 06:23:23;;;;;;;6.77;2.73;;;1.80;99.90;;;;;;5100785;28;20209;-77
2021/01/14 06:25:50;;;;;;;8.27;2.93;;;1.80;99.90;;;;;;5111387;28;20206;-76
2021/01/14 06:28:19;;;;;;;5.80;3.00;;;1.80;99.90;;;;;;5098510;28;20636;-76
2021/01/14 06:31:01;;;;;;;9.50;3.33;;;1.70;99.90;;;;;;5096989;28;20211;-77
2021/01/14 06:33:28;;;;;;;9.13;3.43;;;1.80;99.90;;;;;;5105631;28;20207;-76
2021/01/14 06:36:08;;;;;;;7.47;3.03;;;1.80;99.90;;;;;;5108741;28;20206;-77
2021/01/14 06:38:44;;;;;;;7.10;3.07;;;1.80;99.90;;;;;;5107928;28;20744;-76
2021/01/14 06:41:15;;;;;;;10.13;3.40;;;1.90;99.90;;;;;;5109519;28;20202;-75
2021/01/14 06:43:43;;;;;;;7.70;3.57;;;2.00;99.90;;;;;;5102163;28;20212;-76
2021/01/14 06:46:16;;;;;;;7.23;3.30;;;2.00;99.90;;;;;;5103427;28;20207;-76
2021/01/14 06:48:49;;;;;;;8.93;3.50;;;2.00;99.90;;;;;;5112284;28;20586;-76
2021/01/14 06:51:30;;;;;;;8.43;2.90;;;2.10;99.90;;;;;;5103661;28;20249;-76
2021/01/14 06:54:09;;;;;;;6.40;3.20;;;2.00;99.90;;;;;;5103581;28;20209;-76
2021/01/14 06:56:46;;;;;;;7.77;3.57;;;2.00;99.90;;;;;;5097590;28;20230;-76
2021/01/14 06:59:15;;;;;;;13.03;3.60;;;2.10;99.90;;;;;;5100347;28;20620;-77
2021/01/14 07:01:46;;;;;;;12.33;3.43;;;2.20;99.90;;;;;;5100982;28;20211;-76
2021/01/14 07:04:30;;;;;;;12.03;3.43;;;2.20;99.90;;;;;;5101123;28;20246;-76
2021/01/14 07:07:14;;;;;;;10.90;3.30;;;2.20;99.90;;;;;;5102285;28;20248;-76
2021/01/14 07:09:56;;;;;;;10.07;3.20;;;2.30;99.90;;;;;;5106932;28;20583;-77
2021/01/14 07:12:27;;;;;;;5.13;2.80;;;2.30;99.90;;;;;;5112088;28;20331;-76
2021/01/14 07:15:04;;;;;;;6.47;2.60;;;2.20;99.90;;;;;;5111981;28;20190;-76
2021/01/14 07:17:33;;;;;;;9.87;2.47;;;2.20;99.90;;;;;;5114887;28;20214;-76
2021/01/14 07:20:01;;;;;;;8.87;2.53;;;2.30;99.90;;;;;;5114913;28;20218;-76
2021/01/14 07:22:29;;;;;;;10.87;2.40;;;2.10;99.90;;;;;;5112213;28;20198;-76
2021/01/14 07:25:01;;;;;;;11.57;2.83;;;2.10;99.90;;;;;;5114175;28;20203;-76
2021/01/14 07:27:27;;;;;;;5.93;2.87;;;2.10;99.90;;;;;;5114072;28;20550;-81
2021/01/14 07:29:57;;;;;;;5.77;2.23;;;2.10;99.90;;;;;;5079075;28;20391;-78
2021/01/14 07:32:50;;;;;;;13.33;2.83;;;2.10;99.90;;;;;;5097422;28;20200;-76
2021/01/14 07:35:36;;;;;;;7.30;2.80;;;2.10;99.90;;;;;;5108929;28;20187;-76
2021/01/14 07:38:03;;;;;;;5.60;2.70;;;2.10;99.90;;;;;;5109895;28;20220;-77
2021/01/14 07:40:32;;;;;;;8.50;2.20;;;2.10;99.90;;;;;;5107939;28;20331;-77
2021/01/14 07:42:59;;;;;;;10.23;2.60;;;2.20;99.90;;;;;;5110329;28;20191;-77
2021/01/14 07:45:25;;;;;;;13.93;2.60;;;2.30;99.90;;;;;;5111735;28;20187;-77
2021/01/14 07:47:52;;;;;;;11.90;2.60;;;2.30;99.90;;;;;;5114029;28;20194;-76
2021/01/14 07:50:20;;;;;;;11.63;2.63;;;2.30;99.90;;;;;;5106011;28;20196;-76
2021/01/14 07:52:48;;;;;;;6.23;2.50;;;2.30;99.90;;;;;;5108218;28;20199;-76
2021/01/14 07:55:24;;;;;;;9.47;2.50;;;2.30;99.90;;;;;;5108637;28;20199;-76
2021/01/14 07:58:02;;;;;;;7.33;2.70;;;2.40;99.90;;;;;;5113504;28;20730;-77
2021/01/14 08:00:29;;;;;;;12.97;3.20;;;2.40;99.90;;;;;;5105591;28;20635;-77
2021/01/14 08:03:12;;;;;;;17.53;2.80;;;2.40;99.90;;;;;;5113420;28;20206;-77
2021/01/14 08:05:43;;;;;;;8.73;2.43;;;2.40;99.90;;;;;;5111864;28;20196;-77
2021/01/14 08:08:35;;;;;;;9.87;2.53;;;2.40;99.90;;;;;;5108298;28;20186;-78
2021/01/14 08:11:20;;;;;;;8.27;2.33;;;2.40;99.90;;;;;;5110494;28;20207;-77
2021/01/14 08:14:18;;;;;;;13.03;2.70;;;2.40;99.90;;;;;;5103450;28;20198;-77
2021/01/14 08:16:46;;;;;;;10.43;2.90;;;2.40;99.90;;;;;;5102657;28;20302;-78
2021/01/14 08:19:32;;;;;;;9.20;2.83;;;2.40;99.90;;;;;;5110288;28;20623;-77
2021/01/14 08:22:10;;;;;;;7.73;2.27;;;2.40;99.90;;;;;;5106797;28;20213;-77
2021/01/14 08:24:39;;;;;;;15.80;3.03;;;2.40;99.90;;;;;;5111682;28;20446;-77
2021/01/14 08:27:07;;;;;;;15.13;2.40;;;2.40;99.90;;;;;;5110463;28;20286;-77
2021/01/14 08:29:55;;;;;;;9.20;2.17;;;2.40;99.90;;;;;;5103031;28;20203;-77
2021/01/14 08:32:49;;;;;;;13.30;2.50;;;2.40;99.90;;;;;;5105728;28;20538;-77
2021/01/14 08:35:21;;;;;;;9.20;2.13;;;2.30;99.90;;;;;;5102166;28;20201;-78
2021/01/14 08:37:49;;;;;;;11.83;2.70;;;2.30;99.90;;;;;;5103909;28;20219;-77
2021/01/14 08:40:18;;;;;;;11.27;2.13;;;2.30;99.90;;;;;;5109491;28;20199;-78
2021/01/14 08:42:46;;;;;;;7.37;1.87;;;2.30;99.90;;;;;;5099640;28;20206;-77
2021/01/14 08:45:18;;;;;;;11.87;2.10;;;2.30;99.90;;;;;;5110975;28;20364;-77
2021/01/14 08:48:06;;;;;;;13.87;2.13;;;2.40;99.90;;;;;;5105453;28;20271;-77
2021/01/14 08:50:37;;;;;;;7.03;1.70;;;2.30;99.90;;;;;;5109727;28;20213;-77
2021/01/14 08:53:05;;;;;;;9.93;1.70;;;2.30;99.90;;;;;;5107666;28;20195;-77
2021/01/14 08:55:32;;;;;;;10.30;1.90;;;2.30;99.90;;;;;;5112422;28;20202;-76
2021/01/14 08:58:00;;;;;;;7.73;2.03;;;2.30;99.90;;;;;;5112004;28;20222;-77
2021/01/14 09:00:27;;;;;;;6.97;1.80;;;2.30;99.90;;;;;;5112063;28;20202;-77
2021/01/14 09:02:54;;;;;;;5.47;1.27;;;2.40;99.90;;;;;;5112537;28;20198;-79
2021/01/14 09:05:20;;;;;;;8.77;1.90;;;2.40;99.90;;;;;;5111825;28;20205;-78
2021/01/14 09:08:04;;;;;;;11.87;2.20;;;2.60;99.90;;;;;;5092924;28;20196;-78
2021/01/14 09:10:42;;;;;;;9.13;2.23;;;2.60;99.90;;;;;;5098500;28;20206;-78
2021/01/14 09:13:09;;;;;;;7.40;2.20;;;2.60;99.90;;;;;;5110125;28;20251;-78
2021/01/14 09:15:37;;;;;;;7.70;1.97;;;2.50;99.90;;;;;;5093727;28;20200;-76
2021/01/14 09:18:04;;;;;;;17.57;2.60;;;2.40;99.90;;;;;;5096450;28;20245;-78
2021/01/14 09:20:31;;;;;;;6.80;1.93;;;2.50;99.90;;;;;;5100789;28;20214;-78
2021/01/14 09:23:17;;;;;;;10.97;2.33;;;2.50;99.90;;;;;;5097519;28;20200;-75
2021/01/14 09:25:44;;;;;;;8.90;2.00;;;2.50;99.90;;;;;;5097942;28;20569;-75
2021/01/14 09:28:10;;;;;;;18.60;2.17;;;2.60;99.90;;;;;;5112469;28;20655;-78
2021/01/14 09:30:37;;;;;;;5.37;2.00;;;2.60;99.90;;;;;;5102438;28;20353;-76
2021/01/14 09:33:04;;;;;;;8.80;2.13;;;2.70;99.90;;;;;;5104333;28;20263;-76
2021/01/14 09:35:30;;;;;;;9.13;1.60;;;2.70;99.90;;;;;;5104560;28;20251;-76
2021/01/14 09:37:57;;;;;;;13.30;2.23;;;2.70;99.90;;;;;;5117712;28;20283;-76
2021/01/14 09:40:24;;;;;;;10.23;2.27;;;2.60;99.90;;;;;;5111824;28;20205;-78
2021/01/14 09:42:51;;;;;;;7.17;2.43;;;2.60;99.90;;;;;;5108777;28;20646;-78
2021/01/14 09:45:18;;;;;;;6.20;2.03;;;2.70;99.90;;;;;;5110915;28;20199;-78
2021/01/14 09:47:52;;;;;;;14.40;2.50;;;2.70;99.90;;;;;;5098096;28;20204;-78
2021/01/14 09:50:24;;;;;;;7.13;1.70;;;2.60;99.90;;;;;;5104703;28;20187;-77
2021/01/14 09:52:50;;;;;;;10.13;2.90;;;2.70;99.90;;;;;;5111050;28;20203;-77
2021/01/14 09:55:17;;;;;;;6.97;2.00;;;2.60;99.90;;;;;;5108701;28;20195;-78
2021/01/14 09:57:46;;;;;;;11.40;2.20;;;2.60;99.90;;;;;;5111750;28;20582;-77
2021/01/14 10:00:18;;;;;;;14.03;2.47;;;2.60;99.90;;;;;;5111575;28;20194;-77
2021/01/14 10:02:49;;;;;;;8.57;2.23;;;2.50;99.90;;;;;;5110323;28;20202;-77
2021/01/14 10:05:18;;;;;;;6.77;2.33;;;2.50;99.90;;;;;;5111673;28;20915;-77
2021/01/14 10:07:49;;;;;;;7.50;1.90;;;2.70;99.90;;;;;;5111916;28;20206;-77
2021/01/14 10:10:19;;;;;;;5.60;2.13;;;2.80;99.90;;;;;;5111485;28;20198;-77
2021/01/14 10:12:54;;;;;;;13.00;2.40;;;2.70;99.90;;;;;;5111887;28;20201;-77
2021/01/14 10:15:21;;;;;;;8.87;2.77;;;2.70;99.90;;;;;;5108033;28;20651;-77
2021/01/14 10:17:51;;;;;;;13.27;2.33;;;2.70;99.90;;;;;;5111438;28;20222;-77
2021/01/14 10:20:18;;;;;;;9.87;2.40;;;2.60;99.90;;;;;;5111885;28;20202;-77
2021/01/14 10:22:46;;;;;;;8.10;2.10;;;2.70;99.90;;;;;;5111120;28;20589;-77
2021/01/14 10:25:13;;;;;;;4.80;1.90;;;2.80;99.90;;;;;;5112015;28;20678;-77
2021/01/14 10:27:40;;;;;;;9.67;2.30;;;2.70;99.90;;;;;;5110263;28;20226;-75
2021/01/14 10:30:20;;;;;;;10.37;2.23;;;2.80;99.90;;;;;;5112591;28;20214;-78
2021/01/14 10:32:47;;;;;;;6.47;2.17;;;2.70;99.90;;;;;;5097560;28;20205;-78
2021/01/14 10:35:28;;;;;;;8.77;1.87;;;2.90;99.90;;;;;;5112140;28;20199;-78
2021/01/14 10:38:10;;;;;;;11.13;2.00;;;2.90;99.90;;;;;;5110204;28;20697;-78
2021/01/14 10:40:38;;;;;;;10.33;2.30;;;3.00;99.90;;;;;;5108876;28;20232;-78
2021/01/14 10:43:05;;;;;;;9.93;1.97;;;3.20;99.90;;;;;;5100046;28;20273;-78
2021/01/14 10:45:34;;;;;;;9.27;2.20;;;3.20;99.90;;;;;;5114900;28;20191;-78
2021/01/14 10:48:08;;;;;;;7.80;2.70;;;3.20;99.90;;;;;;5113302;28;20197;-78
2021/01/14 10:50:52;;;;;;;10.00;2.60;;;3.20;99.90;;;;;;5114383;28;20277;-78
2021/01/14 10:53:30;;;;;;;10.53;2.70;;;3.20;99.90;;;;;;5102695;28;20207;-78
2021/01/14 10:56:07;;;;;;;9.27;2.90;;;3.20;99.90;;;;;;5110307;28;20599;-78
2021/01/14 10:58:34;;;;;;;9.13;2.43;;;3.30;99.90;;;;;;5109389;28;20272;-79
2021/01/14 11:01:01;;;;;;;11.60;2.53;;;3.30;99.90;;;;;;5108461;28;20306;-78
2021/01/14 11:03:29;;;;;;;10.03;3.07;;;3.40;99.90;;;;;;5113967;28;20195;-79
2021/01/14 11:05:58;;;;;;;13.13;2.90;;;3.40;99.90;;;;;;5113117;28;20671;-78
2021/01/14 11:08:26;;;;;;;10.77;2.60;;;3.60;99.90;;;;;;5113229;28;20556;-77
2021/01/14 11:11:04;;;;;;;10.27;3.10;;;3.50;99.90;;;;;;5111402;28;20206;-78
2021/01/14 11:13:42;;;;;;;9.80;2.37;;;3.50;99.90;;;;;;5112426;28;20260;-78
2021/01/14 11:16:09;;;;;;;10.03;2.63;;;3.60;99.90;;;;;;5112973;28;20196;-77
2021/01/14 11:18:37;;;;;;;8.77;2.50;;;3.70;99.90;;;;;;5112987;28;20691;-78
2021/01/14 11:21:04;;;;;;;11.60;2.67;;;3.80;99.90;;;;;;5115161;28;20278;-77
2021/01/14 11:23:31;;;;;;;10.33;2.60;;;4.00;99.90;;;;;;5111230;28;20199;-78
2021/01/14 11:26:00;;;;;;;17.27;3.03;;;3.90;99.90;;;;;;5114114;28;20194;-78
2021/01/14 11:28:26;;;;;;;14.27;3.10;;;3.80;99.90;;;;;;5113501;28;20224;-78
2021/01/14 11:30:52;;;;;;;7.80;2.23;;;3.90;99.90;;;;;;5110560;28;20644;-77
2021/01/14 11:33:19;;;;;;;7.97;2.40;;;3.90;99.90;;;;;;5113604;28;20212;-78
2021/01/14 11:35:45;;;;;;;8.63;2.87;;;3.90;99.90;;;;;;5110916;28;20542;-78
2021/01/14 11:38:12;;;;;;;9.43;3.13;;;4.00;99.90;;;;;;5110376;28;20219;-78
2021/01/14 11:40:38;;;;;;;8.30;2.20;;;4.10;99.90;;;;;;5111320;28;20204;-78
2021/01/14 11:43:05;;;;;;;6.83;2.03;;;4.30;99.90;;;;;;5112380;28;20203;-78
2021/01/14 11:45:31;;;;;;;6.37;2.20;;;4.50;99.90;;;;;;5111709;28;20195;-78
2021/01/14 11:47:57;;;;;;;10.53;2.67;;;4.70;99.90;;;;;;5112017;28;20651;-78
2021/01/14 11:50:24;;;;;;;9.37;3.03;;;4.60;99.90;;;;;;5114339;28;20196;-78
2021/01/14 11:52:50;;;;;;;7.67;3.80;;;4.40;99.90;;;;;;5102347;28;20295;-78
2021/01/14 11:55:17;;;;;;;8.23;2.93;;;4.50;99.90;;;;;;5094083;28;20687;-78
2021/01/14 11:57:43;;;;;;;7.53;2.33;;;4.30;99.90;;;;;;5113473;28;20217;-78
2021/01/14 12:00:11;;;;;;;7.73;2.90;;;4.30;99.90;;;;;;5112744;28;20212;-78
2021/01/14 12:02:37;;;;;;;11.57;2.63;;;4.10;99.90;;;;;;5105345;28;20216;-78
2021/01/14 12:05:05;;;;;;;10.80;2.90;;;4.10;99.90;;;;;;5108064;28;20205;-77
2021/01/14 12:07:32;;;;;;;5.63;2.67;;;4.20;99.90;;;;;;5094101;28;20248;-77
2021/01/14 12:09:58;;;;;;;7.20;3.07;;;4.30;99.90;;;;;;5094537;28;20215;-78
2021/01/14 12:12:25;;;;;;;6.77;3.03;;;4.40;99.90;;;;;;5105183;28;20202;-78
2021/01/14 12:14:51;;;;;;;13.13;3.77;;;4.40;99.90;;;;;;5106716;28;20294;-78
2021/01/14 12:17:18;;;;;;;11.10;2.97;;;4.30;99.90;;;;;;5092309;28;20256;-78
2021/01/14 12:19:44;;;;;;;8.47;2.67;;;4.30;99.90;;;;;;5092393;28;20337;-78
2021/01/14 12:22:10;;;;;;;14.73;3.50;;;4.40;99.90;;;;;;5092851;28;20219;-78
2021/01/14 12:24:37;;;;;;;13.60;3.33;;;4.30;99.90;;;;;;5094422;28;20201;-78
2021/01/14 12:27:03;;;;;;;9.83;3.40;;;4.30;99.90;;;;;;5091932;28;20231;-78
2021/01/14 12:29:31;;;;;;;6.07;2.97;;;4.50;99.90;;;;;;5091047;28;20317;-78
2021/01/14 12:31:57;;;;;;;9.50;2.70;;;4.70;99.90;;;;;;5092196;28;20214;-78
2021/01/14 12:34:23;;;;;;;7.93;3.33;;;4.60;99.90;;;;;;5092281;28;20206;-78
2021/01/14 12:36:50;;;;;;;11.20;3.17;;;4.60;99.90;;;;;;5093636;28;20830;-79
2021/01/14 12:39:16;;;;;;;13.17;3.47;;;4.40;99.90;;;;;;5091414;28;20204;-78
2021/01/14 12:41:42;;;;;;;7.17;3.33;;;4.50;99.90;;;;;;5092791;28;20311;-79
2021/01/14 12:44:09;;;;;;;15.80;3.80;;;4.50;99.90;;;;;;5093052;28;20215;-78
2021/01/14 12:46:38;;;;;;;11.10;3.70;;;4.40;99.90;;;;;;5091971;28;20220;-79
2021/01/14 12:49:05;;;;;;;11.33;3.97;;;4.40;99.90;;;;;;5089592;28;20207;-78
2021/01/14 12:51:33;;;;;;;13.57;4.37;;;4.40;99.90;;;;;;5091143;28;20266;-79
2021/01/14 12:53:59;;;;;;;14.47;3.93;;;4.40;99.90;;;;;;5091961;28;20201;-78
2021/01/14 12:56:26;;;;;;;9.90;4.00;;;4.20;99.90;;;;;;5096705;28;20291;-78
2021/01/14 12:58:52;;;;;;;13.67;4.10;;;4.30;99.90;;;;;;5103809;28;20235;-79
2021/01/14 13:01:27;;;;;;;10.33;3.93;;;4.30;99.90;;;;;;5105576;28;20767;-78
2021/01/14 13:03:55;;;;;;;10.87;4.10;;;4.30;99.90;;;;;;5107719;28;20189;-78